Terminal Aerodrome Forecast
Issued by NWS

Home | Current Version | Previous Version | Text Only | Print | Product List | Glossary On
Versions: 1 2 3 4 5 6 7 8 9 10 11 12 13 14 15 16 17 18 19 20 21 22 23 24 25 26 27
565
FTUS46 KPDT 201854 AAA
TAFDLS
TAF AMD
KDLS 201854Z 2019/2118 VRB03KT 3SM -SHRA BR OVC009
     FM202000 VRB03KT P6SM BKN010 BKN040
     FM202100 30010KT P6SM SCT035 SCT050
     FM210600 VRB03KT 1SM BR OVC005
     FM211200 VRB03KT P6SM -RA BKN035 OVC050=

USA.gov is the U.S. government's official web portal to all federal, state and local government web resources and services.